Mapleton, Oregon
Current Conditions -  °F | °C
As of 5:27 PM on Monday 24 Nov 2014 (Local Time) from KEUG Reporting Station
Broken Clouds Broken Clouds  
Wind Chill: 52°   Ceiling: 2900
Heat Index: 52°   Visibility: 10mi
Dew Point: 42°   Wind: 6mph
Humidity: 69%   Direction: 160°SSE
Pressure: 30.32"   Gusts: NA
Location:  44.03°N, 123.86°W
Report Text: KEUG 250127Z 16005KT 10SM BKN029 BKN075 BKN110 11/06 A3032 RMK AO2 T01110056
Loading
Personal Weather Stations






























Interactive Weather Map New forecast layout! Learn more

10-Day Weather Forecast

Advertisements
Track Severe Weather on mobile